sensor_id;sensor_type;location;lat;lon;timestamp;temperature;humidity
7720;DHT22;3902;49.474;8.616;2022-09-09T00:01:51;19.30;99.90
7720;DHT22;3902;49.474;8.616;2022-09-09T00:04:25;19.30;99.90
7720;DHT22;3902;49.474;8.616;2022-09-09T00:07:21;19.20;99.90
7720;DHT22;3902;49.474;8.616;2022-09-09T00:12:41;19.20;99.90
7720;DHT22;3902;49.474;8.616;2022-09-09T00:18:05;19.20;99.90
7720;DHT22;3902;49.474;8.616;2022-09-09T00:20:36;19.20;99.90
7720;DHT22;3902;49.474;8.616;2022-09-09T00:23:12;19.20;99.90
7720;DHT22;3902;49.474;8.616;2022-09-09T00:28:26;19.20;99.90
7720;DHT22;3902;49.474;8.616;2022-09-09T00:30:52;19.20;99.90
7720;DHT22;3902;49.474;8.616;2022-09-09T00:33:20;19.30;99.90
7720;DHT22;3902;49.474;8.616;2022-09-09T00:35:53;19.20;99.90
7720;DHT22;3902;49.474;8.616;2022-09-09T00:43:33;19.20;99.90
7720;DHT22;3902;49.474;8.616;2022-09-09T00:49:04;19.20;99.90
7720;DHT22;3902;49.474;8.616;2022-09-09T00:57:30;19.10;99.90
7720;DHT22;3902;49.474;8.616;2022-09-09T01:00:19;19.10;99.90
7720;DHT22;3902;49.474;8.616;2022-09-09T01:06:01;19.20;99.90
7720;DHT22;3902;49.474;8.616;2022-09-09T01:08:53;19.20;99.90
7720;DHT22;3902;49.474;8.616;2022-09-09T01:11:27;19.20;99.90
7720;DHT22;3902;49.474;8.616;2022-09-09T01:14:05;19.20;99.90
7720;DHT22;3902;49.474;8.616;2022-09-09T01:16:35;19.20;99.90
7720;DHT22;3902;49.474;8.616;2022-09-09T01:19:03;19.20;99.90
7720;DHT22;3902;49.474;8.616;2022-09-09T01:21:49;19.20;99.90
7720;DHT22;3902;49.474;8.616;2022-09-09T01:27:09;19.20;99.90
7720;DHT22;3902;49.474;8.616;2022-09-09T01:29:35;19.20;99.90
7720;DHT22;3902;49.474;8.616;2022-09-09T01:34:47;19.20;99.90
7720;DHT22;3902;49.474;8.616;2022-09-09T01:37:13;19.20;99.90
7720;DHT22;3902;49.474;8.616;2022-09-09T01:39:42;19.20;99.90
7720;DHT22;3902;49.474;8.616;2022-09-09T01:42:11;19.20;99.90
7720;DHT22;3902;49.474;8.616;2022-09-09T01:44:38;19.20;99.90
7720;DHT22;3902;49.474;8.616;2022-09-09T01:47:03;19.10;99.90
7720;DHT22;3902;49.474;8.616;2022-09-09T01:49:29;19.10;99.90
7720;DHT22;3902;49.474;8.616;2022-09-09T01:51:56;19.10;99.90
7720;DHT22;3902;49.474;8.616;2022-09-09T01:54:25;19.00;99.90
7720;DHT22;3902;49.474;8.616;2022-09-09T01:57:13;19.00;99.90
7720;DHT22;3902;49.474;8.616;2022-09-09T02:00:04;19.00;99.90
7720;DHT22;3902;49.474;8.616;2022-09-09T02:02:57;19.00;99.90
7720;DHT22;3902;49.474;8.616;2022-09-09T02:05:37;19.00;99.90
7720;DHT22;3902;49.474;8.616;2022-09-09T02:10:56;18.90;99.90
7720;DHT22;3902;49.474;8.616;2022-09-09T02:13:25;18.80;99.90
7720;DHT22;3902;49.474;8.616;2022-09-09T02:16:12;18.90;99.90
7720;DHT22;3902;49.474;8.616;2022-09-09T02:18:51;18.90;99.90
7720;DHT22;3902;49.474;8.616;2022-09-09T02:21:18;18.90;99.90
7720;DHT22;3902;49.474;8.616;2022-09-09T02:23:46;18.90;99.90
7720;DHT22;3902;49.474;8.616;2022-09-09T02:26:13;18.90;99.90
7720;DHT22;3902;49.474;8.616;2022-09-09T02:28:46;18.90;99.90
7720;DHT22;3902;49.474;8.616;2022-09-09T02:31:13;18.90;99.90
7720;DHT22;3902;49.474;8.616;2022-09-09T02:33:44;18.80;99.90
7720;DHT22;3902;49.474;8.616;2022-09-09T02:36:11;18.80;99.90
7720;DHT22;3902;49.474;8.616;2022-09-09T02:38:45;18.70;99.90
7720;DHT22;3902;49.474;8.616;2022-09-09T02:41:11;18.70;99.90
7720;DHT22;3902;49.474;8.616;2022-09-09T02:43:37;18.70;99.90
7720;DHT22;3902;49.474;8.616;2022-09-09T02:49:11;18.80;99.90
7720;DHT22;3902;49.474;8.616;2022-09-09T02:51:57;18.90;99.90
7720;DHT22;3902;49.474;8.616;2022-09-09T02:54:28;18.90;99.90
7720;DHT22;3902;49.474;8.616;2022-09-09T02:57:03;18.90;99.90
7720;DHT22;3902;49.474;8.616;2022-09-09T02:59:29;18.80;99.90
7720;DHT22;3902;49.474;8.616;2022-09-09T03:01:55;18.80;99.90
7720;DHT22;3902;49.474;8.616;2022-09-09T03:04:21;18.60;99.90
7720;DHT22;3902;49.474;8.616;2022-09-09T03:06:47;18.60;99.90
7720;DHT22;3902;49.474;8.616;2022-09-09T03:09:13;18.60;99.90
7720;DHT22;3902;49.474;8.616;2022-09-09T03:11:38;18.60;99.90
7720;DHT22;3902;49.474;8.616;2022-09-09T03:14:04;18.60;99.90
7720;DHT22;3902;49.474;8.616;2022-09-09T03:16:30;18.60;99.90
7720;DHT22;3902;49.474;8.616;2022-09-09T03:18:55;18.60;99.90
7720;DHT22;3902;49.474;8.616;2022-09-09T03:21:21;18.60;99.90
7720;DHT22;3902;49.474;8.616;2022-09-09T03:23:46;18.60;99.90
7720;DHT22;3902;49.474;8.616;2022-09-09T03:26:12;18.60;99.90
7720;DHT22;3902;49.474;8.616;2022-09-09T03:28:40;18.60;99.90
7720;DHT22;3902;49.474;8.616;2022-09-09T03:31:06;18.60;99.90
7720;DHT22;3902;49.474;8.616;2022-09-09T03:33:39;18.60;99.90
7720;DHT22;3902;49.474;8.616;2022-09-09T03:36:06;18.60;99.90
7720;DHT22;3902;49.474;8.616;2022-09-09T03:38:33;18.60;99.90
7720;DHT22;3902;49.474;8.616;2022-09-09T03:40:59;18.60;99.90
7720;DHT22;3902;49.474;8.616;2022-09-09T03:43:26;18.60;99.90
7720;DHT22;3902;49.474;8.616;2022-09-09T03:45:52;18.60;99.90
7720;DHT22;3902;49.474;8.616;2022-09-09T03:48:18;18.60;99.90
7720;DHT22;3902;49.474;8.616;2022-09-09T03:50:54;18.60;99.90
7720;DHT22;3902;49.474;8.616;2022-09-09T03:53:21;18.50;99.90
7720;DHT22;3902;49.474;8.616;2022-09-09T03:55:51;18.50;99.90
7720;DHT22;3902;49.474;8.616;2022-09-09T03:58:20;18.50;99.90
7720;DHT22;3902;49.474;8.616;2022-09-09T04:01:06;18.50;99.90
7720;DHT22;3902;49.474;8.616;2022-09-09T04:03:32;18.50;99.90
7720;DHT22;3902;49.474;8.616;2022-09-09T04:05:59;18.50;99.90
7720;DHT22;3902;49.474;8.616;2022-09-09T04:08:25;18.50;99.90
7720;DHT22;3902;49.474;8.616;2022-09-09T04:10:51;18.50;99.90
7720;DHT22;3902;49.474;8.616;2022-09-09T04:13:17;18.50;99.90
7720;DHT22;3902;49.474;8.616;2022-09-09T04:15:58;18.50;99.90
7720;DHT22;3902;49.474;8.616;2022-09-09T04:18:24;18.50;99.90
7720;DHT22;3902;49.474;8.616;2022-09-09T04:20:51;18.50;99.90
7720;DHT22;3902;49.474;8.616;2022-09-09T04:23:19;18.40;99.90
7720;DHT22;3902;49.474;8.616;2022-09-09T04:25:47;18.40;99.90
7720;DHT22;3902;49.474;8.616;2022-09-09T04:28:14;18.40;99.90
7720;DHT22;3902;49.474;8.616;2022-09-09T04:30:40;18.30;99.90
7720;DHT22;3902;49.474;8.616;2022-09-09T04:33:06;18.30;99.90
7720;DHT22;3902;49.474;8.616;2022-09-09T04:35:33;18.20;99.90
7720;DHT22;3902;49.474;8.616;2022-09-09T04:37:59;18.30;99.90
7720;DHT22;3902;49.474;8.616;2022-09-09T04:40:25;18.30;99.90
7720;DHT22;3902;49.474;8.616;2022-09-09T04:42:51;18.30;99.90
7720;DHT22;3902;49.474;8.616;2022-09-09T04:45:17;18.30;99.90
7720;DHT22;3902;49.474;8.616;2022-09-09T04:47:43;18.40;99.90
7720;DHT22;3902;49.474;8.616;2022-09-09T04:50:09;18.30;99.90
7720;DHT22;3902;49.474;8.616;2022-09-09T04:52:35;18.20;99.90
7720;DHT22;3902;49.474;8.616;2022-09-09T04:55:01;18.20;99.90
7720;DHT22;3902;49.474;8.616;2022-09-09T04:57:27;18.10;99.90
7720;DHT22;3902;49.474;8.616;2022-09-09T04:59:54;18.10;99.90
7720;DHT22;3902;49.474;8.616;2022-09-09T05:02:19;18.20;99.90
7720;DHT22;3902;49.474;8.616;2022-09-09T05:04:45;18.20;99.90
7720;DHT22;3902;49.474;8.616;2022-09-09T05:07:10;18.20;99.90
7720;DHT22;3902;49.474;8.616;2022-09-09T05:09:36;18.20;99.90
7720;DHT22;3902;49.474;8.616;2022-09-09T05:12:02;18.10;99.90
7720;DHT22;3902;49.474;8.616;2022-09-09T05:14:28;18.20;99.90
7720;DHT22;3902;49.474;8.616;2022-09-09T05:16:55;18.20;99.90
7720;DHT22;3902;49.474;8.616;2022-09-09T05:19:21;18.30;99.90
7720;DHT22;3902;49.474;8.616;2022-09-09T05:21:47;18.30;99.90
7720;DHT22;3902;49.474;8.616;2022-09-09T05:24:12;18.30;99.90
7720;DHT22;3902;49.474;8.616;2022-09-09T05:26:38;18.30;99.90
7720;DHT22;3902;49.474;8.616;2022-09-09T05:29:03;18.30;99.90
7720;DHT22;3902;49.474;8.616;2022-09-09T05:31:30;18.30;99.90
7720;DHT22;3902;49.474;8.616;2022-09-09T05:33:56;18.30;99.90
7720;DHT22;3902;49.474;8.616;2022-09-09T05:36:22;18.40;99.90
7720;DHT22;3902;49.474;8.616;2022-09-09T05:38:48;18.40;99.90
7720;DHT22;3902;49.474;8.616;2022-09-09T05:41:15;18.40;99.90
7720;DHT22;3902;49.474;8.616;2022-09-09T05:43:42;18.40;99.90
7720;DHT22;3902;49.474;8.616;2022-09-09T05:46:14;18.40;99.90
7720;DHT22;3902;49.474;8.616;2022-09-09T05:48:42;18.50;99.90
7720;DHT22;3902;49.474;8.616;2022-09-09T05:51:10;18.40;99.90
7720;DHT22;3902;49.474;8.616;2022-09-09T05:53:41;18.40;99.90
7720;DHT22;3902;49.474;8.616;2022-09-09T05:56:13;18.50;99.90
7720;DHT22;3902;49.474;8.616;2022-09-09T05:58:43;18.40;99.90
7720;DHT22;3902;49.474;8.616;2022-09-09T06:01:15;18.50;99.90
7720;DHT22;3902;49.474;8.616;2022-09-09T06:03:42;18.50;99.90
7720;DHT22;3902;49.474;8.616;2022-09-09T06:06:10;18.50;99.90
7720;DHT22;3902;49.474;8.616;2022-09-09T06:08:38;18.50;99.90
7720;DHT22;3902;49.474;8.616;2022-09-09T06:11:13;18.60;99.90
7720;DHT22;3902;49.474;8.616;2022-09-09T06:13:39;18.60;99.90
7720;DHT22;3902;49.474;8.616;2022-09-09T06:16:13;18.50;99.90
7720;DHT22;3902;49.474;8.616;2022-09-09T06:18:39;18.50;99.90
7720;DHT22;3902;49.474;8.616;2022-09-09T06:21:08;18.50;99.90
7720;DHT22;3902;49.474;8.616;2022-09-09T06:23:34;18.50;99.90
7720;DHT22;3902;49.474;8.616;2022-09-09T06:26:06;18.50;99.90
7720;DHT22;3902;49.474;8.616;2022-09-09T06:28:33;18.50;99.90
7720;DHT22;3902;49.474;8.616;2022-09-09T06:30:59;18.50;99.90
7720;DHT22;3902;49.474;8.616;2022-09-09T06:33:25;18.60;99.90
7720;DHT22;3902;49.474;8.616;2022-09-09T06:35:52;18.50;99.90
7720;DHT22;3902;49.474;8.616;2022-09-09T06:38:18;18.60;99.90
7720;DHT22;3902;49.474;8.616;2022-09-09T06:40:53;18.70;99.90
7720;DHT22;3902;49.474;8.616;2022-09-09T06:43:23;18.70;99.90
7720;DHT22;3902;49.474;8.616;2022-09-09T06:45:58;18.70;99.90
7720;DHT22;3902;49.474;8.616;2022-09-09T06:48:24;18.80;99.90
7720;DHT22;3902;49.474;8.616;2022-09-09T06:50:59;18.80;99.90
7720;DHT22;3902;49.474;8.616;2022-09-09T06:53:25;18.70;99.90
7720;DHT22;3902;49.474;8.616;2022-09-09T06:55:53;18.70;99.90
7720;DHT22;3902;49.474;8.616;2022-09-09T06:58:20;18.70;99.90
7720;DHT22;3902;49.474;8.616;2022-09-09T07:00:47;18.70;99.90
7720;DHT22;3902;49.474;8.616;2022-09-09T07:03:13;18.80;99.90
7720;DHT22;3902;49.474;8.616;2022-09-09T07:05:38;18.80;99.90
7720;DHT22;3902;49.474;8.616;2022-09-09T07:08:04;18.80;99.90
7720;DHT22;3902;49.474;8.616;2022-09-09T07:10:30;18.90;99.90
7720;DHT22;3902;49.474;8.616;2022-09-09T07:12:56;18.80;99.90
7720;DHT22;3902;49.474;8.616;2022-09-09T07:15:21;18.80;99.90
7720;DHT22;3902;49.474;8.616;2022-09-09T07:17:48;18.80;99.90
7720;DHT22;3902;49.474;8.616;2022-09-09T07:20:14;18.80;99.90
7720;DHT22;3902;49.474;8.616;2022-09-09T07:22:40;18.90;99.90
7720;DHT22;3902;49.474;8.616;2022-09-09T07:25:07;18.90;99.90
7720;DHT22;3902;49.474;8.616;2022-09-09T07:27:32;18.90;99.90
7720;DHT22;3902;49.474;8.616;2022-09-09T07:29:58;19.00;99.90
7720;DHT22;3902;49.474;8.616;2022-09-09T07:32:23;19.00;99.90
7720;DHT22;3902;49.474;8.616;2022-09-09T07:34:51;19.10;99.90
7720;DHT22;3902;49.474;8.616;2022-09-09T07:37:16;19.10;99.90
7720;DHT22;3902;49.474;8.616;2022-09-09T07:39:42;19.20;99.90
7720;DHT22;3902;49.474;8.616;2022-09-09T07:42:08;19.20;99.90
7720;DHT22;3902;49.474;8.616;2022-09-09T07:44:35;19.20;99.90
7720;DHT22;3902;49.474;8.616;2022-09-09T07:47:02;19.20;99.90
7720;DHT22;3902;49.474;8.616;2022-09-09T07:49:28;19.20;99.90
7720;DHT22;3902;49.474;8.616;2022-09-09T07:51:53;19.20;99.90
7720;DHT22;3902;49.474;8.616;2022-09-09T07:54:19;19.20;99.90
7720;DHT22;3902;49.474;8.616;2022-09-09T07:56:46;19.10;99.90
7720;DHT22;3902;49.474;8.616;2022-09-09T07:59:14;19.20;99.90
7720;DHT22;3902;49.474;8.616;2022-09-09T08:01:43;19.20;99.90
7720;DHT22;3902;49.474;8.616;2022-09-09T08:04:11;19.20;99.90
7720;DHT22;3902;49.474;8.616;2022-09-09T08:06:53;19.20;99.90
7720;DHT22;3902;49.474;8.616;2022-09-09T08:09:19;19.30;99.90
7720;DHT22;3902;49.474;8.616;2022-09-09T08:11:46;19.30;99.90
7720;DHT22;3902;49.474;8.616;2022-09-09T08:14:12;19.40;99.90
7720;DHT22;3902;49.474;8.616;2022-09-09T08:16:41;19.40;99.90
7720;DHT22;3902;49.474;8.616;2022-09-09T08:19:07;19.40;99.90
7720;DHT22;3902;49.474;8.616;2022-09-09T08:21:35;19.50;99.90
7720;DHT22;3902;49.474;8.616;2022-09-09T08:24:03;19.40;99.90
7720;DHT22;3902;49.474;8.616;2022-09-09T08:26:35;19.50;99.90
7720;DHT22;3902;49.474;8.616;2022-09-09T08:29:02;19.50;99.90
7720;DHT22;3902;49.474;8.616;2022-09-09T08:31:34;19.50;99.90
7720;DHT22;3902;49.474;8.616;2022-09-09T08:34:00;19.50;99.90
7720;DHT22;3902;49.474;8.616;2022-09-09T08:36:30;19.40;99.90
7720;DHT22;3902;49.474;8.616;2022-09-09T08:38:57;19.40;99.90
7720;DHT22;3902;49.474;8.616;2022-09-09T08:41:38;19.40;99.90
7720;DHT22;3902;49.474;8.616;2022-09-09T08:52:31;19.30;99.90
7720;DHT22;3902;49.474;8.616;2022-09-09T08:57:55;19.40;99.90
7720;DHT22;3902;49.474;8.616;2022-09-09T09:00:22;19.50;99.90
7720;DHT22;3902;49.474;8.616;2022-09-09T09:03:06;19.50;99.90
7720;DHT22;3902;49.474;8.616;2022-09-09T09:05:47;19.50;99.90
7720;DHT22;3902;49.474;8.616;2022-09-09T09:08:36;19.60;99.90
7720;DHT22;3902;49.474;8.616;2022-09-09T09:11:04;19.60;99.90
7720;DHT22;3902;49.474;8.616;2022-09-09T09:13:34;19.60;99.90
7720;DHT22;3902;49.474;8.616;2022-09-09T09:16:24;19.70;99.90
7720;DHT22;3902;49.474;8.616;2022-09-09T09:18:52;19.70;99.90
7720;DHT22;3902;49.474;8.616;2022-09-09T09:21:41;19.70;99.90
7720;DHT22;3902;49.474;8.616;2022-09-09T09:24:19;19.70;99.90
7720;DHT22;3902;49.474;8.616;2022-09-09T09:26:46;19.70;99.90
7720;DHT22;3902;49.474;8.616;2022-09-09T09:29:16;19.80;99.90
7720;DHT22;3902;49.474;8.616;2022-09-09T09:32:02;19.80;99.90
7720;DHT22;3902;49.474;8.616;2022-09-09T09:34:28;19.90;99.90
7720;DHT22;3902;49.474;8.616;2022-09-09T09:36:59;20.10;99.90
7720;DHT22;3902;49.474;8.616;2022-09-09T09:39:32;20.30;99.90
7720;DHT22;3902;49.474;8.616;2022-09-09T09:42:23;20.40;99.90
7720;DHT22;3902;49.474;8.616;2022-09-09T09:44:50;20.50;99.90
7720;DHT22;3902;49.474;8.616;2022-09-09T09:47:19;20.60;99.90
7720;DHT22;3902;49.474;8.616;2022-09-09T09:49:59;20.60;99.90
7720;DHT22;3902;49.474;8.616;2022-09-09T09:52:26;20.70;99.90
7720;DHT22;3902;49.474;8.616;2022-09-09T09:54:54;20.70;99.90
7720;DHT22;3902;49.474;8.616;2022-09-09T09:57:26;20.50;99.90
7720;DHT22;3902;49.474;8.616;2022-09-09T10:00:17;20.50;99.90
7720;DHT22;3902;49.474;8.616;2022-09-09T10:02:45;20.20;99.90
7720;DHT22;3902;49.474;8.616;2022-09-09T10:05:22;20.00;99.90
7720;DHT22;3902;49.474;8.616;2022-09-09T10:08:11;19.70;99.90
7720;DHT22;3902;49.474;8.616;2022-09-09T10:10:42;19.10;99.90
7720;DHT22;3902;49.474;8.616;2022-09-09T10:16:58;18.60;99.90
7720;DHT22;3902;49.474;8.616;2022-09-09T10:19:35;18.80;99.90
7720;DHT22;3902;49.474;8.616;2022-09-09T10:22:28;19.00;99.90
7720;DHT22;3902;49.474;8.616;2022-09-09T10:30:20;19.50;99.90
7720;DHT22;3902;49.474;8.616;2022-09-09T10:38:18;20.00;99.90
7720;DHT22;3902;49.474;8.616;2022-09-09T10:51:48;20.70;99.90
7720;DHT22;3902;49.474;8.616;2022-09-09T10:54:23;21.00;99.90
7720;DHT22;3902;49.474;8.616;2022-09-09T10:56:56;21.40;99.90
7720;DHT22;3902;49.474;8.616;2022-09-09T10:59:33;21.50;99.90
7720;DHT22;3902;49.474;8.616;2022-09-09T11:07:43;23.70;99.90
7720;DHT22;3902;49.474;8.616;2022-09-09T11:13:20;24.70;99.90
7720;DHT22;3902;49.474;8.616;2022-09-09T11:15:51;25.30;99.90
7720;DHT22;3902;49.474;8.616;2022-09-09T11:18:22;25.90;99.90
7720;DHT22;3902;49.474;8.616;2022-09-09T11:20:53;26.50;99.90
7720;DHT22;3902;49.474;8.616;2022-09-09T11:23:34;26.90;99.90
7720;DHT22;3902;49.474;8.616;2022-09-09T11:26:05;26.90;99.90
7720;DHT22;3902;49.474;8.616;2022-09-09T11:34:03;27.20;99.90
7720;DHT22;3902;49.474;8.616;2022-09-09T11:37:19;27.10;99.90
7720;DHT22;3902;49.474;8.616;2022-09-09T11:40:19;27.10;99.90
7720;DHT22;3902;49.474;8.616;2022-09-09T11:42:47;27.10;99.90
7720;DHT22;3902;49.474;8.616;2022-09-09T11:45:26;27.10;99.90
7720;DHT22;3902;49.474;8.616;2022-09-09T11:47:56;27.00;99.90
7720;DHT22;3902;49.474;8.616;2022-09-09T11:52:48;26.70;99.90
7720;DHT22;3902;49.474;8.616;2022-09-09T11:55:32;26.10;99.90
7720;DHT22;3902;49.474;8.616;2022-09-09T11:58:15;25.90;99.90
7720;DHT22;3902;49.474;8.616;2022-09-09T12:00:43;25.90;99.90
7720;DHT22;3902;49.474;8.616;2022-09-09T12:03:42;26.00;99.90
7720;DHT22;3902;49.474;8.616;2022-09-09T12:06:28;25.90;99.90
7720;DHT22;3902;49.474;8.616;2022-09-09T12:09:09;25.50;99.90
7720;DHT22;3902;49.474;8.616;2022-09-09T12:11:37;25.40;99.90
7720;DHT22;3902;49.474;8.616;2022-09-09T12:14:03;25.30;99.90
7720;DHT22;3902;49.474;8.616;2022-09-09T12:16:37;25.40;99.90
7720;DHT22;3902;49.474;8.616;2022-09-09T12:21:46;26.00;99.90
7720;DHT22;3902;49.474;8.616;2022-09-09T12:24:51;25.80;99.90
7720;DHT22;3902;49.474;8.616;2022-09-09T12:27:21;25.20;99.90
7720;DHT22;3902;49.474;8.616;2022-09-09T12:30:16;25.10;99.90
7720;DHT22;3902;49.474;8.616;2022-09-09T12:32:42;24.30;99.90
7720;DHT22;3902;49.474;8.616;2022-09-09T12:35:13;23.70;99.90
7720;DHT22;3902;49.474;8.616;2022-09-09T12:37:48;23.50;99.90
7720;DHT22;3902;49.474;8.616;2022-09-09T12:40:23;23.30;99.90
7720;DHT22;3902;49.474;8.616;2022-09-09T12:42:49;23.30;99.90
7720;DHT22;3902;49.474;8.616;2022-09-09T12:45:17;23.00;99.90
7720;DHT22;3902;49.474;8.616;2022-09-09T12:47:52;23.20;99.90
7720;DHT22;3902;49.474;8.616;2022-09-09T12:52:49;24.60;99.90
7720;DHT22;3902;49.474;8.616;2022-09-09T12:55:21;25.30;99.90
7720;DHT22;3902;49.474;8.616;2022-09-09T12:57:51;26.30;99.90
7720;DHT22;3902;49.474;8.616;2022-09-09T13:00:22;27.00;99.90
7720;DHT22;3902;49.474;8.616;2022-09-09T13:02:56;28.10;99.90
7720;DHT22;3902;49.474;8.616;2022-09-09T13:05:27;28.90;99.90
7720;DHT22;3902;49.474;8.616;2022-09-09T13:08:08;29.50;99.90
7720;DHT22;3902;49.474;8.616;2022-09-09T13:10:52;29.90;99.90
7720;DHT22;3902;49.474;8.616;2022-09-09T13:13:27;30.00;99.90
7720;DHT22;3902;49.474;8.616;2022-09-09T13:15:57;29.90;99.90
7720;DHT22;3902;49.474;8.616;2022-09-09T13:18:35;29.40;99.90
7720;DHT22;3902;49.474;8.616;2022-09-09T13:21:01;28.80;99.90
7720;DHT22;3902;49.474;8.616;2022-09-09T13:23:31;28.10;99.90
7720;DHT22;3902;49.474;8.616;2022-09-09T13:26:04;27.30;99.90
7720;DHT22;3902;49.474;8.616;2022-09-09T13:28:31;26.20;99.90
7720;DHT22;3902;49.474;8.616;2022-09-09T13:31:00;25.70;99.90
7720;DHT22;3902;49.474;8.616;2022-09-09T13:33:36;24.80;99.90
7720;DHT22;3902;49.474;8.616;2022-09-09T13:36:09;23.60;99.90
7720;DHT22;3902;49.474;8.616;2022-09-09T13:38:40;23.40;99.90
7720;DHT22;3902;49.474;8.616;2022-09-09T13:41:22;23.40;99.90
7720;DHT22;3902;49.474;8.616;2022-09-09T13:43:49;23.30;99.90
7720;DHT22;3902;49.474;8.616;2022-09-09T13:46:27;23.30;99.90
7720;DHT22;3902;49.474;8.616;2022-09-09T13:48:55;23.20;99.90
7720;DHT22;3902;49.474;8.616;2022-09-09T13:51:37;23.20;99.90
7720;DHT22;3902;49.474;8.616;2022-09-09T13:54:06;23.30;99.90
7720;DHT22;3902;49.474;8.616;2022-09-09T13:56:34;23.30;99.90
7720;DHT22;3902;49.474;8.616;2022-09-09T13:59:00;23.40;99.90
7720;DHT22;3902;49.474;8.616;2022-09-09T14:01:26;23.40;99.90
7720;DHT22;3902;49.474;8.616;2022-09-09T14:03:53;23.30;99.90
7720;DHT22;3902;49.474;8.616;2022-09-09T14:06:18;23.40;99.90
7720;DHT22;3902;49.474;8.616;2022-09-09T14:08:44;23.50;99.90
7720;DHT22;3902;49.474;8.616;2022-09-09T14:11:12;23.50;99.90
7720;DHT22;3902;49.474;8.616;2022-09-09T14:13:38;23.10;99.90
7720;DHT22;3902;49.474;8.616;2022-09-09T14:16:04;23.00;99.90
7720;DHT22;3902;49.474;8.616;2022-09-09T14:18:30;23.10;99.90
7720;DHT22;3902;49.474;8.616;2022-09-09T14:20:55;23.70;99.90
7720;DHT22;3902;49.474;8.616;2022-09-09T14:23:22;23.90;99.90
7720;DHT22;3902;49.474;8.616;2022-09-09T14:25:48;24.40;99.90
7720;DHT22;3902;49.474;8.616;2022-09-09T14:28:14;25.00;99.90
7720;DHT22;3902;49.474;8.616;2022-09-09T14:30:41;25.70;99.90
7720;DHT22;3902;49.474;8.616;2022-09-09T14:33:09;26.50;99.90
7720;DHT22;3902;49.474;8.616;2022-09-09T14:35:35;27.20;99.90
7720;DHT22;3902;49.474;8.616;2022-09-09T14:38:02;27.70;99.90
7720;DHT22;3902;49.474;8.616;2022-09-09T14:40:28;27.80;99.90
7720;DHT22;3902;49.474;8.616;2022-09-09T14:42:54;27.40;99.90
7720;DHT22;3902;49.474;8.616;2022-09-09T14:45:19;27.80;99.90
7720;DHT22;3902;49.474;8.616;2022-09-09T14:47:46;27.60;99.90
7720;DHT22;3902;49.474;8.616;2022-09-09T14:50:12;27.60;99.90
7720;DHT22;3902;49.474;8.616;2022-09-09T14:52:38;27.40;99.90
7720;DHT22;3902;49.474;8.616;2022-09-09T14:55:04;27.10;99.90
7720;DHT22;3902;49.474;8.616;2022-09-09T14:57:31;26.80;99.90
7720;DHT22;3902;49.474;8.616;2022-09-09T14:59:56;26.30;99.90
7720;DHT22;3902;49.474;8.616;2022-09-09T15:02:22;25.80;99.90
7720;DHT22;3902;49.474;8.616;2022-09-09T15:04:48;25.40;99.90
7720;DHT22;3902;49.474;8.616;2022-09-09T15:07:15;24.90;99.90
7720;DHT22;3902;49.474;8.616;2022-09-09T15:09:42;24.70;99.90
7720;DHT22;3902;49.474;8.616;2022-09-09T15:12:07;24.30;99.90
7720;DHT22;3902;49.474;8.616;2022-09-09T15:14:33;24.10;99.90
7720;DHT22;3902;49.474;8.616;2022-09-09T15:16:59;23.70;99.90
7720;DHT22;3902;49.474;8.616;2022-09-09T15:19:24;23.30;99.90
7720;DHT22;3902;49.474;8.616;2022-09-09T15:21:50;22.60;99.90
7720;DHT22;3902;49.474;8.616;2022-09-09T15:24:15;22.20;99.90
7720;DHT22;3902;49.474;8.616;2022-09-09T15:26:41;21.80;99.90
7720;DHT22;3902;49.474;8.616;2022-09-09T15:29:07;21.60;99.90
7720;DHT22;3902;49.474;8.616;2022-09-09T15:31:33;21.20;99.90
7720;DHT22;3902;49.474;8.616;2022-09-09T15:34:04;20.50;99.90
7720;DHT22;3902;49.474;8.616;2022-09-09T15:36:42;20.10;99.90
7720;DHT22;3902;49.474;8.616;2022-09-09T15:39:10;19.80;99.90
7720;DHT22;3902;49.474;8.616;2022-09-09T15:41:38;19.70;99.90
7720;DHT22;3902;49.474;8.616;2022-09-09T15:44:04;19.70;99.90
7720;DHT22;3902;49.474;8.616;2022-09-09T15:46:40;19.80;99.90
7720;DHT22;3902;49.474;8.616;2022-09-09T15:49:15;19.80;99.90
7720;DHT22;3902;49.474;8.616;2022-09-09T15:51:47;19.70;99.90
7720;DHT22;3902;49.474;8.616;2022-09-09T15:54:20;19.80;99.90
7720;DHT22;3902;49.474;8.616;2022-09-09T15:56:51;19.90;99.90
7720;DHT22;3902;49.474;8.616;2022-09-09T15:59:17;20.10;99.90
7720;DHT22;3902;49.474;8.616;2022-09-09T16:01:43;20.10;99.90
7720;DHT22;3902;49.474;8.616;2022-09-09T16:04:09;20.30;99.90
7720;DHT22;3902;49.474;8.616;2022-09-09T16:06:34;20.10;99.90
7720;DHT22;3902;49.474;8.616;2022-09-09T16:09:03;20.20;99.90
7720;DHT22;3902;49.474;8.616;2022-09-09T16:11:35;20.20;99.90
7720;DHT22;3902;49.474;8.616;2022-09-09T16:14:01;20.10;99.90
7720;DHT22;3902;49.474;8.616;2022-09-09T16:16:29;20.20;99.90
7720;DHT22;3902;49.474;8.616;2022-09-09T16:18:59;20.30;99.90
7720;DHT22;3902;49.474;8.616;2022-09-09T16:21:30;20.30;99.90
7720;DHT22;3902;49.474;8.616;2022-09-09T16:23:58;20.30;99.90
7720;DHT22;3902;49.474;8.616;2022-09-09T16:26:29;20.50;99.90
7720;DHT22;3902;49.474;8.616;2022-09-09T16:28:55;20.40;99.90
7720;DHT22;3902;49.474;8.616;2022-09-09T16:31:23;20.30;99.90
7720;DHT22;3902;49.474;8.616;2022-09-09T16:33:49;20.30;99.90
7720;DHT22;3902;49.474;8.616;2022-09-09T16:36:20;20.40;99.90
7720;DHT22;3902;49.474;8.616;2022-09-09T16:38:46;20.40;99.90
7720;DHT22;3902;49.474;8.616;2022-09-09T16:41:13;20.40;99.90
7720;DHT22;3902;49.474;8.616;2022-09-09T16:43:40;20.40;99.90
7720;DHT22;3902;49.474;8.616;2022-09-09T16:46:17;20.40;99.90
7720;DHT22;3902;49.474;8.616;2022-09-09T16:48:44;20.30;99.90
7720;DHT22;3902;49.474;8.616;2022-09-09T16:53:42;20.20;99.90
7720;DHT22;3902;49.474;8.616;2022-09-09T16:56:13;20.20;99.90
7720;DHT22;3902;49.474;8.616;2022-09-09T16:58:40;20.20;99.90
7720;DHT22;3902;49.474;8.616;2022-09-09T17:01:06;20.20;99.90
7720;DHT22;3902;49.474;8.616;2022-09-09T17:03:31;20.20;99.90
7720;DHT22;3902;49.474;8.616;2022-09-09T17:05:58;20.20;99.90
7720;DHT22;3902;49.474;8.616;2022-09-09T17:08:28;20.20;99.90
7720;DHT22;3902;49.474;8.616;2022-09-09T17:10:55;20.20;99.90
7720;DHT22;3902;49.474;8.616;2022-09-09T17:13:20;20.20;99.90
7720;DHT22;3902;49.474;8.616;2022-09-09T17:15:46;20.20;99.90
7720;DHT22;3902;49.474;8.616;2022-09-09T17:18:12;20.20;99.90
7720;DHT22;3902;49.474;8.616;2022-09-09T17:20:39;20.00;99.90
7720;DHT22;3902;49.474;8.616;2022-09-09T17:23:07;20.00;99.90
7720;DHT22;3902;49.474;8.616;2022-09-09T17:25:32;19.90;99.90
7720;DHT22;3902;49.474;8.616;2022-09-09T17:27:58;19.90;99.90
7720;DHT22;3902;49.474;8.616;2022-09-09T17:30:25;19.90;99.90
7720;DHT22;3902;49.474;8.616;2022-09-09T17:32:51;19.80;99.90
7720;DHT22;3902;49.474;8.616;2022-09-09T17:35:17;19.80;99.90
7720;DHT22;3902;49.474;8.616;2022-09-09T17:37:43;19.70;99.90
7720;DHT22;3902;49.474;8.616;2022-09-09T17:40:10;19.70;99.90
7720;DHT22;3902;49.474;8.616;2022-09-09T17:42:35;19.70;99.90
7720;DHT22;3902;49.474;8.616;2022-09-09T17:45:01;19.50;99.90
7720;DHT22;3902;49.474;8.616;2022-09-09T17:47:27;19.50;99.90
7720;DHT22;3902;49.474;8.616;2022-09-09T17:49:53;19.60;99.90
7720;DHT22;3902;49.474;8.616;2022-09-09T17:52:19;19.50;99.90
7720;DHT22;3902;49.474;8.616;2022-09-09T17:54:45;19.50;99.90
7720;DHT22;3902;49.474;8.616;2022-09-09T17:57:10;19.50;99.90
7720;DHT22;3902;49.474;8.616;2022-09-09T17:59:36;19.40;99.90